Time;durP1;ratioP1;P1;durP2;ratioP2;P2;SDS_P1;SDS_P2;PMS_P1;PMS_P2;Temp;Humidity;BMP_temperature;BMP_pressure;BME280_temperature;BME280_humidity;BME280_pressure;Samples;Min_cycle;Max_cycle;Signal;HPM_P1;HPM_P2
2021/07/31 00:00:42;;;;;;;10.95;3.85;;;;;;;;;;5110849;28;20027;-71
2021/07/31 00:03:08;;;;;;;11.55;4.03;;;;;;;;;;5110329;28;20384;-71
2021/07/31 00:06:57;;;;;;;13.07;5.10;;;;;;;;;;5111437;27;20401;-71
2021/07/31 00:09:23;;;;;;;13.25;3.95;;;;;;;;;;5111028;28;20024;-71
2021/07/31 00:11:50;;;;;;;11.73;5.00;;;;;;;;;;5111269;28;20027;-71
2021/07/31 00:14:16;;;;;;;10.20;4.97;;;;;;;;;;5111276;28;20020;-71
2021/07/31 00:16:43;;;;;;;9.25;4.30;;;;;;;;;;5109487;28;20110;-70
2021/07/31 00:19:09;;;;;;;12.65;5.00;;;;;;;;;;5111667;28;20533;-70
2021/07/31 00:21:35;;;;;;;12.18;4.88;;;;;;;;;;5109882;28;20028;-71
2021/07/31 00:24:01;;;;;;;12.02;5.03;;;;;;;;;;5110671;28;20027;-70
2021/07/31 00:26:27;;;;;;;12.25;4.60;;;;;;;;;;5111211;28;20504;-71
2021/07/31 00:28:54;;;;;;;10.30;4.75;;;;;;;;;;5111004;28;20099;-71
2021/07/31 00:31:46;;;;;;;10.43;4.65;;;;;;;;;;5111416;27;20388;-71
2021/07/31 00:34:12;;;;;;;15.10;4.80;;;;;;;;;;5111391;28;20023;-71
2021/07/31 00:36:38;;;;;;;9.65;4.22;;;;;;;;;;5109960;28;20024;-71
2021/07/31 00:39:04;;;;;;;11.63;5.32;;;;;;;;;;5110848;28;20402;-71
2021/07/31 00:42:09;;;;;;;13.20;4.57;;;;;;;;;;5111862;27;20384;-71
2021/07/31 00:45:18;;;;;;;10.25;4.47;;;;;;;;;;5111227;27;20389;-70
2021/07/31 00:47:44;;;;;;;11.00;4.07;;;;;;;;;;5111398;28;20024;-71
2021/07/31 00:50:11;;;;;;;10.90;4.00;;;;;;;;;;5111557;28;20028;-70
2021/07/31 00:52:38;;;;;;;8.38;3.95;;;;;;;;;;5110980;28;20080;-71
2021/07/31 00:55:05;;;;;;;9.85;4.40;;;;;;;;;;5111235;28;20047;-71
2021/07/31 00:57:33;;;;;;;12.45;4.78;;;;;;;;;;5111267;28;20494;-71
2021/07/31 00:59:59;;;;;;;12.93;4.68;;;;;;;;;;5110838;28;20032;-71
2021/07/31 01:02:25;;;;;;;13.02;4.57;;;;;;;;;;5111091;28;20103;-71
2021/07/31 01:04:51;;;;;;;12.50;4.88;;;;;;;;;;5111540;28;20032;-71
2021/07/31 01:09:11;;;;;;;11.73;5.43;;;;;;;;;;5111800;27;20777;-71
2021/07/31 01:11:37;;;;;;;12.10;5.35;;;;;;;;;;5111352;28;20475;-71
2021/07/31 01:16:03;;;;;;;14.57;5.30;;;;;;;;;;5111456;27;20396;-70
2021/07/31 01:19:27;;;;;;;14.50;5.22;;;;;;;;;;5111108;27;20450;-70
2021/07/31 01:21:53;;;;;;;10.73;5.22;;;;;;;;;;5111398;28;20031;-71
2021/07/31 01:24:19;;;;;;;13.77;5.50;;;;;;;;;;5111397;28;20032;-70
2021/07/31 01:26:46;;;;;;;17.00;5.07;;;;;;;;;;5110850;28;20024;-70
2021/07/31 01:29:14;;;;;;;12.73;5.00;;;;;;;;;;5111186;28;20030;-70
2021/07/31 01:31:40;;;;;;;16.95;5.57;;;;;;;;;;5111190;28;20028;-70
2021/07/31 01:34:07;;;;;;;12.15;5.20;;;;;;;;;;5110812;28;20039;-71
2021/07/31 01:36:33;;;;;;;11.50;4.82;;;;;;;;;;5109729;28;20046;-70
2021/07/31 01:39:00;;;;;;;13.98;4.82;;;;;;;;;;5109661;28;20052;-70
2021/07/31 01:41:26;;;;;;;11.63;4.32;;;;;;;;;;5110790;28;20426;-70
2021/07/31 01:43:53;;;;;;;10.30;3.85;;;;;;;;;;5109724;28;20023;-70
2021/07/31 01:47:50;;;;;;;8.13;3.30;;;;;;;;;;5111532;27;20450;-70
2021/07/31 01:50:17;;;;;;;13.32;3.70;;;;;;;;;;5111607;28;20031;-70
2021/07/31 01:52:43;;;;;;;10.60;4.30;;;;;;;;;;5111847;28;20102;-71
2021/07/31 01:55:10;;;;;;;10.55;4.55;;;;;;;;;;5110996;28;20027;-71
2021/07/31 01:58:34;;;;;;;10.63;4.90;;;;;;;;;;5112200;27;20461;-70
2021/07/31 02:01:01;;;;;;;11.45;4.78;;;;;;;;;;5110091;28;20468;-70
2021/07/31 02:03:28;;;;;;;10.15;5.75;;;;;;;;;;5110820;28;20024;-70
2021/07/31 02:06:20;;;;;;;14.07;4.63;;;;;;;;;;5111675;27;20434;-71
2021/07/31 02:08:46;;;;;;;7.78;3.83;;;;;;;;;;5111029;28;20020;-70
2021/07/31 02:11:13;;;;;;;14.45;5.57;;;;;;;;;;5111552;28;20028;-70
2021/07/31 02:13:40;;;;;;;12.65;5.32;;;;;;;;;;5111287;28;20020;-70
2021/07/31 02:16:06;;;;;;;16.13;5.20;;;;;;;;;;5111013;28;20035;-70
2021/07/31 02:18:32;;;;;;;9.68;4.10;;;;;;;;;;5111285;28;20012;-70
2021/07/31 02:20:58;;;;;;;11.88;5.13;;;;;;;;;;5111204;28;20479;-70
2021/07/31 02:24:38;;;;;;;13.27;5.25;;;;;;;;;;5111010;27;20445;-70
2021/07/31 02:27:04;;;;;;;10.20;4.53;;;;;;;;;;5110103;28;20024;-70
2021/07/31 02:29:30;;;;;;;11.98;4.90;;;;;;;;;;5111768;28;20031;-70
2021/07/31 02:31:57;;;;;;;17.13;5.13;;;;;;;;;;5110882;28;20024;-69
2021/07/31 02:34:23;;;;;;;11.38;4.22;;;;;;;;;;5109927;28;20043;-70
2021/07/31 02:36:49;;;;;;;10.82;4.75;;;;;;;;;;5110746;28;20024;-69
2021/07/31 02:39:15;;;;;;;8.85;4.05;;;;;;;;;;5111113;28;20480;-70
2021/07/31 02:41:41;;;;;;;9.95;3.90;;;;;;;;;;5111355;28;20023;-70
2021/07/31 02:44:08;;;;;;;7.60;4.10;;;;;;;;;;5110806;28;20036;-70
2021/07/31 02:46:35;;;;;;;10.23;4.90;;;;;;;;;;5111060;28;20023;-70
2021/07/31 02:49:01;;;;;;;13.15;4.90;;;;;;;;;;5111113;28;20376;-70
2021/07/31 02:51:28;;;;;;;10.95;4.75;;;;;;;;;;5109288;28;20015;-71
2021/07/31 02:53:54;;;;;;;15.23;4.78;;;;;;;;;;5110877;28;20030;-70
2021/07/31 02:56:20;;;;;;;10.82;4.43;;;;;;;;;;5110821;28;20387;-70
2021/07/31 02:58:46;;;;;;;11.75;3.70;;;;;;;;;;5110423;28;20096;-70
2021/07/31 03:01:12;;;;;;;10.70;4.57;;;;;;;;;;5110769;28;20023;-71
2021/07/31 03:03:38;;;;;;;12.95;4.78;;;;;;;;;;5109277;28;20426;-71
2021/07/31 03:06:04;;;;;;;10.88;4.25;;;;;;;;;;5110332;28;20024;-71
2021/07/31 03:08:31;;;;;;;16.50;4.60;;;;;;;;;;5111068;28;20020;-70
2021/07/31 03:10:59;;;;;;;11.45;4.43;;;;;;;;;;5110709;28;20018;-70
2021/07/31 03:13:25;;;;;;;8.95;4.60;;;;;;;;;;5110063;28;20020;-70
2021/07/31 03:16:51;;;;;;;10.32;4.43;;;;;;;;;;5112209;27;20384;-70
2021/07/31 03:19:18;;;;;;;13.15;4.72;;;;;;;;;;5111059;28;20020;-70
2021/07/31 03:21:44;;;;;;;15.15;5.43;;;;;;;;;;5111312;28;20027;-70
2021/07/31 03:24:10;;;;;;;10.45;5.07;;;;;;;;;;5111440;28;20023;-70
2021/07/31 03:26:36;;;;;;;15.65;5.88;;;;;;;;;;5110822;28;20032;-70
2021/07/31 03:29:03;;;;;;;11.90;4.43;;;;;;;;;;5111702;28;20475;-71
2021/07/31 03:31:29;;;;;;;10.90;5.32;;;;;;;;;;5111106;28;20504;-71
2021/07/31 03:33:55;;;;;;;9.95;4.32;;;;;;;;;;5110651;28;20027;-71
2021/07/31 03:38:23;;;;;;;19.55;5.65;;;;;;;;;;5112172;27;20392;-70
2021/07/31 03:40:49;;;;;;;13.40;5.30;;;;;;;;;;5111527;28;20028;-71
2021/07/31 03:43:16;;;;;;;21.25;5.53;;;;;;;;;;5111269;28;20028;-71
2021/07/31 03:46:42;;;;;;;14.05;6.65;;;;;;;;;;5112136;27;20462;-70
2021/07/31 03:49:09;;;;;;;16.42;5.80;;;;;;;;;;5110989;28;20027;-71
2021/07/31 03:51:35;;;;;;;13.23;5.55;;;;;;;;;;5111288;28;20035;-70
2021/07/31 03:55:48;;;;;;;15.30;5.53;;;;;;;;;;5111114;27;20392;-71
2021/07/31 03:58:15;;;;;;;13.57;4.97;;;;;;;;;;5110067;28;20468;-70
2021/07/31 04:00:41;;;;;;;11.95;5.93;;;;;;;;;;5111261;28;20412;-70
2021/07/31 04:03:08;;;;;;;11.85;5.20;;;;;;;;;;5110876;28;20522;-70
2021/07/31 04:07:58;;;;;;;9.40;5.45;;;;;;;;;;5111901;27;20537;-71
2021/07/31 04:10:25;;;;;;;12.98;5.38;;;;;;;;;;5110988;28;20026;-71
2021/07/31 04:12:51;;;;;;;12.82;5.18;;;;;;;;;;5111423;28;20034;-70
2021/07/31 04:15:17;;;;;;;10.38;4.13;;;;;;;;;;5109595;28;20383;-71
2021/07/31 04:18:04;;;;;;;9.95;4.68;;;;;;;;;;5111999;27;20396;-70
2021/07/31 04:21:08;;;;;;;11.13;5.22;;;;;;;;;;5071342;28;20449;-70
2021/07/31 04:23:35;;;;;;;8.75;4.75;;;;;;;;;;5070566;28;20035;-70
2021/07/31 04:26:12;;;;;;;14.73;5.03;;;;;;;;;;5069447;28;20033;-70
2021/07/31 04:28:38;;;;;;;13.25;5.10;;;;;;;;;;5070651;28;20063;-70
2021/07/31 04:31:08;;;;;;;10.18;5.10;;;;;;;;;;5068947;28;20488;-70
2021/07/31 04:33:37;;;;;;;18.33;6.43;;;;;;;;;;5070622;28;20031;-70
2021/07/31 04:36:03;;;;;;;11.88;5.75;;;;;;;;;;5069220;28;20369;-71
2021/07/31 04:38:30;;;;;;;9.18;4.82;;;;;;;;;;5070164;28;20020;-71
2021/07/31 04:40:57;;;;;;;12.15;5.40;;;;;;;;;;5069233;28;20033;-71
2021/07/31 04:43:23;;;;;;;14.52;4.70;;;;;;;;;;5070056;28;20048;-71
2021/07/31 04:45:49;;;;;;;10.05;4.78;;;;;;;;;;5070520;28;20029;-71
2021/07/31 04:48:15;;;;;;;15.63;4.22;;;;;;;;;;5070287;28;20025;-71
2021/07/31 04:52:37;;;;;;;10.18;4.00;;;;;;;;;;5111099;27;20899;-71
2021/07/31 04:55:03;;;;;;;11.63;5.15;;;;;;;;;;5111386;28;20023;-71
2021/07/31 04:57:30;;;;;;;9.50;3.90;;;;;;;;;;5110905;28;20020;-71
2021/07/31 04:59:56;;;;;;;9.93;4.28;;;;;;;;;;5109996;28;20028;-70
2021/07/31 05:02:22;;;;;;;15.93;4.40;;;;;;;;;;5111414;28;20024;-70
2021/07/31 05:04:48;;;;;;;8.43;4.35;;;;;;;;;;5109517;28;20049;-70
2021/07/31 05:07:14;;;;;;;11.30;4.47;;;;;;;;;;5111194;28;20059;-70
2021/07/31 05:09:40;;;;;;;16.70;5.15;;;;;;;;;;5111113;28;20055;-70
2021/07/31 05:12:07;;;;;;;19.23;6.15;;;;;;;;;;5110531;28;20516;-70
2021/07/31 05:16:37;;;;;;;11.18;3.80;;;;;;;;;;5111487;27;20389;-72
2021/07/31 05:19:03;;;;;;;8.73;3.65;;;;;;;;;;5110922;28;20015;-71
2021/07/31 05:21:29;;;;;;;7.93;3.67;;;;;;;;;;5111629;28;20085;-70
2021/07/31 05:23:55;;;;;;;9.48;3.75;;;;;;;;;;5109997;28;20024;-71
2021/07/31 05:26:22;;;;;;;10.60;4.35;;;;;;;;;;5110993;28;20035;-70
2021/07/31 05:28:48;;;;;;;9.80;3.72;;;;;;;;;;5111005;28;20499;-70
2021/07/31 05:31:21;;;;;;;8.15;3.55;;;;;;;;;;5111171;28;20020;-71
2021/07/31 05:33:47;;;;;;;9.07;4.30;;;;;;;;;;5110844;28;20364;-70
2021/07/31 05:38:15;;;;;;;14.07;5.28;;;;;;;;;;5132442;27;20126;-70
2021/07/31 05:40:42;;;;;;;10.93;4.35;;;;;;;;;;5092658;28;20063;-70
2021/07/31 05:43:08;;;;;;;13.60;5.22;;;;;;;;;;5111177;28;20082;-70
2021/07/31 05:45:34;;;;;;;10.45;4.20;;;;;;;;;;5111574;28;20487;-71
2021/07/31 05:48:01;;;;;;;12.10;4.13;;;;;;;;;;5092509;28;20060;-70
2021/07/31 05:51:14;;;;;;;9.70;4.22;;;;;;;;;;5111981;27;21011;-70
2021/07/31 05:53:41;;;;;;;10.82;4.25;;;;;;;;;;5109626;28;20035;-70
2021/07/31 05:56:11;;;;;;;13.60;5.25;;;;;;;;;;5110069;28;20484;-70
2021/07/31 05:59:09;;;;;;;10.60;4.70;;;;;;;;;;5112251;27;20381;-70
2021/07/31 06:01:36;;;;;;;8.77;3.85;;;;;;;;;;5109672;28;20031;-70
2021/07/31 06:04:44;;;;;;;8.48;4.05;;;;;;;;;;5111459;27;20758;-70
2021/07/31 06:07:11;;;;;;;11.43;4.55;;;;;;;;;;5111330;28;20044;-70
2021/07/31 06:09:38;;;;;;;9.05;4.13;;;;;;;;;;5110832;28;20027;-70
2021/07/31 06:12:04;;;;;;;11.32;4.65;;;;;;;;;;5111232;28;20024;-70
2021/07/31 06:16:28;;;;;;;14.02;4.50;;;;;;;;;;5111088;27;20878;-70
2021/07/31 06:18:55;;;;;;;7.97;4.15;;;;;;;;;;5111444;28;20024;-70
2021/07/31 06:21:21;;;;;;;12.88;4.90;;;;;;;;;;5111488;28;20031;-70
2021/07/31 06:23:47;;;;;;;12.02;4.80;;;;;;;;;;5110903;28;20379;-70
2021/07/31 06:26:13;;;;;;;10.55;4.45;;;;;;;;;;5111704;28;20095;-70
2021/07/31 06:28:39;;;;;;;12.20;5.13;;;;;;;;;;5109807;28;20107;-70
2021/07/31 06:31:07;;;;;;;7.28;4.18;;;;;;;;;;5110767;28;20020;-71
2021/07/31 06:33:33;;;;;;;9.55;4.72;;;;;;;;;;5111197;28;20024;-71
2021/07/31 06:36:00;;;;;;;17.92;6.05;;;;;;;;;;5110781;28;20115;-71
2021/07/31 06:38:26;;;;;;;12.13;5.35;;;;;;;;;;5109705;28;20016;-71
2021/07/31 06:40:52;;;;;;;10.95;4.72;;;;;;;;;;5110915;28;20031;-70
2021/07/31 06:43:18;;;;;;;12.50;4.22;;;;;;;;;;5110599;28;20499;-70
2021/07/31 06:45:44;;;;;;;12.90;5.38;;;;;;;;;;5109602;28;20368;-70
2021/07/31 06:48:10;;;;;;;11.70;4.70;;;;;;;;;;5110806;28;20653;-70
2021/07/31 06:50:37;;;;;;;10.15;4.40;;;;;;;;;;5110317;28;20028;-70
2021/07/31 06:53:03;;;;;;;11.98;4.20;;;;;;;;;;5109396;28;20016;-71
2021/07/31 06:55:29;;;;;;;13.82;4.68;;;;;;;;;;5110701;28;20036;-71
2021/07/31 06:57:55;;;;;;;14.52;5.93;;;;;;;;;;5110323;28;20043;-71
2021/07/31 07:00:21;;;;;;;14.50;5.95;;;;;;;;;;5110686;28;20494;-70
2021/07/31 07:02:47;;;;;;;11.05;4.63;;;;;;;;;;5110563;28;20019;-70
2021/07/31 07:05:14;;;;;;;11.07;5.10;;;;;;;;;;5110085;28;20089;-70
2021/07/31 07:07:40;;;;;;;10.93;4.88;;;;;;;;;;5110439;28;20059;-71
2021/07/31 07:10:06;;;;;;;11.98;4.75;;;;;;;;;;5109081;28;20024;-71
2021/07/31 07:12:33;;;;;;;13.63;5.15;;;;;;;;;;5109878;28;20023;-71
2021/07/31 07:14:59;;;;;;;15.82;5.50;;;;;;;;;;5110013;28;20052;-71
2021/07/31 07:17:25;;;;;;;10.05;5.20;;;;;;;;;;5110502;28;20028;-71
2021/07/31 07:19:51;;;;;;;10.77;4.30;;;;;;;;;;5109779;28;20391;-71
2021/07/31 07:22:17;;;;;;;18.45;5.38;;;;;;;;;;5110377;28;20046;-71
2021/07/31 07:24:43;;;;;;;12.40;4.95;;;;;;;;;;5110058;28;20024;-71
2021/07/31 07:27:10;;;;;;;12.10;5.28;;;;;;;;;;5098459;28;20028;-72
2021/07/31 07:29:36;;;;;;;9.60;4.57;;;;;;;;;;5096647;28;20034;-70
2021/07/31 07:32:05;;;;;;;14.02;5.38;;;;;;;;;;5095870;28;20470;-70
2021/07/31 07:34:31;;;;;;;10.40;4.45;;;;;;;;;;5096445;28;20048;-70
2021/07/31 07:36:57;;;;;;;10.32;4.65;;;;;;;;;;5094874;28;20468;-70
2021/07/31 07:39:23;;;;;;;9.40;4.43;;;;;;;;;;5095782;28;20027;-70
2021/07/31 07:41:49;;;;;;;11.23;5.00;;;;;;;;;;5096649;28;20500;-70
2021/07/31 07:44:15;;;;;;;11.18;4.20;;;;;;;;;;5094874;28;20031;-71
2021/07/31 07:46:41;;;;;;;10.02;4.65;;;;;;;;;;5095856;28;20024;-70
2021/07/31 07:49:08;;;;;;;10.77;4.13;;;;;;;;;;5096158;28;20020;-71
2021/07/31 07:51:34;;;;;;;10.07;4.28;;;;;;;;;;5096022;28;20442;-71
2021/07/31 07:54:00;;;;;;;11.75;4.97;;;;;;;;;;5095831;28;20024;-70
2021/07/31 07:56:26;;;;;;;10.40;4.32;;;;;;;;;;5096458;28;20122;-70
2021/07/31 07:58:57;;;;;;;13.77;4.28;;;;;;;;;;5095943;28;20051;-70
2021/07/31 08:01:23;;;;;;;12.13;4.35;;;;;;;;;;5094106;28;20020;-71
2021/07/31 08:03:50;;;;;;;12.82;4.25;;;;;;;;;;5095821;28;20027;-71
2021/07/31 08:06:17;;;;;;;13.13;4.43;;;;;;;;;;5095577;28;20503;-71
2021/07/31 08:08:43;;;;;;;12.57;4.18;;;;;;;;;;5095014;28;20464;-70
2021/07/31 08:11:09;;;;;;;14.98;4.70;;;;;;;;;;5095490;28;20056;-70
2021/07/31 08:13:35;;;;;;;13.10;4.35;;;;;;;;;;5094010;28;20028;-71
2021/07/31 08:16:01;;;;;;;10.10;4.28;;;;;;;;;;5094855;28;20565;-71
2021/07/31 08:18:28;;;;;;;10.27;5.72;;;;;;;;;;5095476;28;20046;-71
2021/07/31 08:20:54;;;;;;;17.52;5.18;;;;;;;;;;5095519;28;20081;-71
2021/07/31 08:23:20;;;;;;;9.63;4.30;;;;;;;;;;5094914;28;20024;-71
2021/07/31 08:25:46;;;;;;;11.18;5.80;;;;;;;;;;5095306;28;20380;-71
2021/07/31 08:28:13;;;;;;;10.63;4.70;;;;;;;;;;5095608;28;20030;-71
2021/07/31 08:30:39;;;;;;;11.38;4.20;;;;;;;;;;5094799;28;20056;-71
2021/07/31 08:33:05;;;;;;;10.93;4.50;;;;;;;;;;5095449;28;20084;-71
2021/07/31 08:35:31;;;;;;;11.52;4.65;;;;;;;;;;5094643;28;20486;-71
2021/07/31 08:37:57;;;;;;;13.05;4.15;;;;;;;;;;5094170;28;20095;-71
2021/07/31 08:40:25;;;;;;;9.68;4.82;;;;;;;;;;5095240;28;20028;-71
2021/07/31 08:42:51;;;;;;;11.07;4.55;;;;;;;;;;5094679;28;20020;-71
2021/07/31 08:45:18;;;;;;;11.98;4.85;;;;;;;;;;5094901;28;20024;-71
2021/07/31 08:47:46;;;;;;;10.23;4.35;;;;;;;;;;5093865;28;20055;-72
2021/07/31 08:50:13;;;;;;;10.52;5.13;;;;;;;;;;5093159;28;20103;-72
2021/07/31 08:52:40;;;;;;;12.82;5.22;;;;;;;;;;5094862;28;20103;-72
2021/07/31 08:55:06;;;;;;;12.27;4.75;;;;;;;;;;5093398;28;20035;-71
2021/07/31 08:57:33;;;;;;;13.68;4.60;;;;;;;;;;5094348;28;20460;-72
2021/07/31 08:59:59;;;;;;;10.60;4.03;;;;;;;;;;5094713;28;20032;-71
2021/07/31 09:02:25;;;;;;;17.20;4.85;;;;;;;;;;5094636;28;20024;-71
2021/07/31 09:04:51;;;;;;;10.68;3.95;;;;;;;;;;5094276;28;20032;-71
2021/07/31 09:07:18;;;;;;;9.82;4.53;;;;;;;;;;5093282;28;20020;-73
2021/07/31 09:09:46;;;;;;;11.57;3.78;;;;;;;;;;5094730;28;20028;-72
2021/07/31 09:12:12;;;;;;;21.80;4.60;;;;;;;;;;5092799;28;20027;-72
2021/07/31 09:14:45;;;;;;;15.07;4.30;;;;;;;;;;5094049;28;20048;-70
2021/07/31 09:17:23;;;;;;;12.00;3.95;;;;;;;;;;5094549;28;20028;-72
2021/07/31 09:19:50;;;;;;;11.63;3.97;;;;;;;;;;5094004;28;20020;-71
2021/07/31 09:22:16;;;;;;;10.30;4.10;;;;;;;;;;5092979;28;20084;-72
2021/07/31 09:24:42;;;;;;;9.80;4.55;;;;;;;;;;5094000;28;20027;-72
2021/07/31 09:27:23;;;;;;;9.70;4.32;;;;;;;;;;5094728;28;20024;-71
2021/07/31 09:29:58;;;;;;;11.33;4.03;;;;;;;;;;5094203;28;20475;-71
2021/07/31 09:32:35;;;;;;;16.50;4.20;;;;;;;;;;5093794;28;20456;-71
2021/07/31 09:35:01;;;;;;;9.05;4.43;;;;;;;;;;5094030;28;20027;-71
2021/07/31 09:37:28;;;;;;;11.07;4.40;;;;;;;;;;5094191;28;20104;-71
2021/07/31 09:39:54;;;;;;;14.38;5.03;;;;;;;;;;5093645;28;20055;-70
2021/07/31 09:42:26;;;;;;;13.18;5.00;;;;;;;;;;5092611;28;20462;-71
2021/07/31 09:44:52;;;;;;;8.45;3.80;;;;;;;;;;5093943;28;20020;-70
2021/07/31 09:47:18;;;;;;;10.30;4.13;;;;;;;;;;5093413;28;20020;-70
2021/07/31 09:49:46;;;;;;;9.65;3.17;;;;;;;;;;5093159;28;20028;-70
2021/07/31 09:52:19;;;;;;;11.30;4.63;;;;;;;;;;5093747;28;20044;-71
2021/07/31 09:54:45;;;;;;;10.30;3.83;;;;;;;;;;5093276;28;20383;-71
2021/07/31 09:57:12;;;;;;;9.88;4.47;;;;;;;;;;5093756;28;20020;-71
2021/07/31 09:59:44;;;;;;;10.88;4.82;;;;;;;;;;5093741;28;20039;-71
2021/07/31 10:02:10;;;;;;;;;;;;;;;;;;5094186;28;20044;-71
2021/07/31 10:04:39;;;;;;;10.65;4.65;;;;;;;;;;5092361;28;19904;-71
2021/07/31 10:07:06;;;;;;;12.40;4.68;;;;;;;;;;5093159;28;20107;-71
2021/07/31 10:09:33;;;;;;;10.45;4.35;;;;;;;;;;5093997;28;20114;-71
2021/07/31 10:11:59;;;;;;;10.73;4.28;;;;;;;;;;5094049;28;20107;-72
2021/07/31 10:14:25;;;;;;;8.70;3.85;;;;;;;;;;5092943;28;20165;-70
2021/07/31 10:16:53;;;;;;;10.50;3.63;;;;;;;;;;5093607;28;20036;-70
2021/07/31 10:19:20;;;;;;;11.23;3.72;;;;;;;;;;5093466;28;20103;-71
2021/07/31 10:21:55;;;;;;;9.23;3.50;;;;;;;;;;5093090;28;20020;-70
2021/07/31 10:24:21;;;;;;;7.97;3.63;;;;;;;;;;5093708;28;20021;-71
2021/07/31 10:27:06;;;;;;;12.50;3.90;;;;;;;;;;5093375;28;20380;-70
2021/07/31 10:29:35;;;;;;;9.75;3.72;;;;;;;;;;5092958;28;20492;-70
2021/07/31 10:32:20;;;;;;;13.40;4.30;;;;;;;;;;5093401;28;20081;-70
2021/07/31 10:34:55;;;;;;;6.35;3.28;;;;;;;;;;5091980;28;20066;-70
2021/07/31 10:37:36;;;;;;;8.40;3.35;;;;;;;;;;5093338;28;20380;-70
2021/07/31 10:40:07;;;;;;;10.18;3.95;;;;;;;;;;5093532;28;20388;-70
2021/07/31 10:42:48;;;;;;;10.85;3.78;;;;;;;;;;5092801;28;20016;-70
2021/07/31 10:45:17;;;;;;;7.65;3.47;;;;;;;;;;5093585;28;20028;-71
2021/07/31 10:47:47;;;;;;;9.57;3.83;;;;;;;;;;5093241;28;20016;-69
2021/07/31 10:50:25;;;;;;;11.15;4.00;;;;;;;;;;5091539;28;20036;-71
2021/07/31 10:52:55;;;;;;;15.85;4.10;;;;;;;;;;5093185;28;20472;-70
2021/07/31 10:55:25;;;;;;;9.98;3.60;;;;;;;;;;5093071;28;20036;-71
2021/07/31 10:57:54;;;;;;;11.45;3.88;;;;;;;;;;5091798;28;20073;-71
2021/07/31 11:00:22;;;;;;;16.27;4.40;;;;;;;;;;5093121;28;20384;-71
2021/07/31 11:02:48;;;;;;;10.35;3.83;;;;;;;;;;5096039;28;20024;-70
2021/07/31 11:05:14;;;;;;;9.32;3.42;;;;;;;;;;5095150;28;20020;-71
2021/07/31 11:08:02;;;;;;;14.95;5.13;;;;;;;;;;5097023;28;20024;-70
2021/07/31 11:10:31;;;;;;;7.18;3.25;;;;;;;;;;5096457;28;20024;-71
2021/07/31 11:12:57;;;;;;;8.23;3.45;;;;;;;;;;5096927;28;20036;-71
2021/07/31 11:15:24;;;;;;;10.93;3.60;;;;;;;;;;5096503;28;20093;-71
2021/07/31 11:18:00;;;;;;;11.95;3.70;;;;;;;;;;5096284;28;20027;-70
2021/07/31 11:20:29;;;;;;;12.20;3.70;;;;;;;;;;5096654;28;20111;-72
2021/07/31 11:22:56;;;;;;;14.25;4.10;;;;;;;;;;5096749;28;20091;-71
2021/07/31 11:25:23;;;;;;;9.52;3.92;;;;;;;;;;5096289;28;20028;-71
2021/07/31 11:27:56;;;;;;;9.63;3.53;;;;;;;;;;5096784;28;20028;-71
2021/07/31 11:30:22;;;;;;;10.38;3.75;;;;;;;;;;5095193;28;20024;-71
2021/07/31 11:32:48;;;;;;;10.13;3.50;;;;;;;;;;5095993;28;20024;-69
2021/07/31 11:35:27;;;;;;;8.77;3.67;;;;;;;;;;5094991;28;20067;-70
2021/07/31 11:37:53;;;;;;;9.38;3.55;;;;;;;;;;5096291;28;20387;-70
2021/07/31 11:40:19;;;;;;;11.15;3.28;;;;;;;;;;5095843;28;20085;-70
2021/07/31 11:42:45;;;;;;;8.75;3.45;;;;;;;;;;5096343;28;20098;-70
2021/07/31 11:45:12;;;;;;;9.15;3.63;;;;;;;;;;5096040;28;20028;-70
2021/07/31 11:47:39;;;;;;;9.48;3.80;;;;;;;;;;5096126;28;20388;-70
2021/07/31 11:50:09;;;;;;;16.60;4.00;;;;;;;;;;5094682;28;20059;-70
2021/07/31 11:52:35;;;;;;;11.85;3.85;;;;;;;;;;5095708;28;20020;-70
2021/07/31 11:55:01;;;;;;;9.00;3.30;;;;;;;;;;5094571;28;20479;-71
2021/07/31 11:57:27;;;;;;;8.02;3.50;;;;;;;;;;5095900;28;20054;-71
2021/07/31 11:59:54;;;;;;;8.80;3.13;;;;;;;;;;5095499;28;20016;-72
2021/07/31 12:02:34;;;;;;;9.77;2.80;;;;;;;;;;5095822;28;20044;-70
2021/07/31 12:05:02;;;;;;;7.13;3.50;;;;;;;;;;5096133;28;20036;-70
2021/07/31 12:07:28;;;;;;;10.07;3.35;;;;;;;;;;5095362;28;20377;-71
2021/07/31 12:10:11;;;;;;;12.32;3.72;;;;;;;;;;5095967;28;20425;-71
2021/07/31 12:12:38;;;;;;;13.23;3.58;;;;;;;;;;5094361;28;20035;-71
2021/07/31 12:15:21;;;;;;;10.52;4.00;;;;;;;;;;5094999;28;20044;-71
2021/07/31 12:17:56;;;;;;;8.80;3.13;;;;;;;;;;5095583;28;20024;-71
2021/07/31 12:20:33;;;;;;;8.93;3.80;;;;;;;;;;5095133;28;20445;-70
2021/07/31 12:23:00;;;;;;;12.77;2.90;;;;;;;;;;5095435;28;20028;-70
2021/07/31 12:25:26;;;;;;;12.50;3.78;;;;;;;;;;5095580;28;20024;-70
2021/07/31 12:28:00;;;;;;;8.80;3.55;;;;;;;;;;5095025;28;20057;-70
2021/07/31 12:30:36;;;;;;;14.77;3.58;;;;;;;;;;5095285;28;20020;-71
2021/07/31 12:33:14;;;;;;;13.20;2.90;;;;;;;;;;5095228;28;20031;-71
2021/07/31 12:35:43;;;;;;;12.25;3.75;;;;;;;;;;5094785;28;20387;-71
2021/07/31 12:38:15;;;;;;;7.55;3.80;;;;;;;;;;5095111;28;20020;-70
2021/07/31 12:40:41;;;;;;;7.53;3.05;;;;;;;;;;5095207;28;20436;-71
2021/07/31 12:43:09;;;;;;;13.30;3.63;;;;;;;;;;5094618;28;20495;-70
2021/07/31 12:45:35;;;;;;;9.18;3.50;;;;;;;;;;5093777;28;20039;-71
2021/07/31 12:48:01;;;;;;;10.65;3.97;;;;;;;;;;5094914;28;20020;-70
2021/07/31 12:50:27;;;;;;;9.55;3.75;;;;;;;;;;5093229;28;20023;-71
2021/07/31 12:52:55;;;;;;;10.90;3.38;;;;;;;;;;5094838;28;20022;-71
2021/07/31 12:55:21;;;;;;;9.85;3.33;;;;;;;;;;5094676;28;20030;-71
2021/07/31 12:57:49;;;;;;;11.82;3.63;;;;;;;;;;5093146;28;20028;-71
2021/07/31 13:00:16;;;;;;;11.68;3.53;;;;;;;;;;5093412;28;20048;-72
2021/07/31 13:02:43;;;;;;;13.98;3.33;;;;;;;;;;5094264;28;20541;-69
2021/07/31 13:05:10;;;;;;;9.57;3.00;;;;;;;;;;5094725;28;20028;-69
2021/07/31 13:07:36;;;;;;;5.68;2.67;;;;;;;;;;5094410;28;20427;-69
2021/07/31 13:10:02;;;;;;;9.57;3.05;;;;;;;;;;5094300;28;20020;-69
2021/07/31 13:12:30;;;;;;;7.88;3.42;;;;;;;;;;5094372;28;20020;-71
2021/07/31 13:14:56;;;;;;;8.35;3.10;;;;;;;;;;5094138;28;20052;-71
2021/07/31 13:17:23;;;;;;;9.85;3.67;;;;;;;;;;5093917;28;20536;-71
2021/07/31 13:19:49;;;;;;;6.47;2.63;;;;;;;;;;5092984;28;20032;-71
2021/07/31 13:22:15;;;;;;;4.78;2.58;;;;;;;;;;5094533;28;20051;-71
2021/07/31 13:24:42;;;;;;;8.60;2.67;;;;;;;;;;5093280;28;20023;-71
2021/07/31 13:27:10;;;;;;;8.27;2.85;;;;;;;;;;5094233;28;20491;-71
2021/07/31 13:29:36;;;;;;;10.52;3.03;;;;;;;;;;5092824;28;20073;-76
2021/07/31 13:32:02;;;;;;;7.85;3.42;;;;;;;;;;5092460;28;20059;-70
2021/07/31 13:34:30;;;;;;;8.52;2.78;;;;;;;;;;5094257;28;20027;-70
2021/07/31 13:37:01;;;;;;;7.55;3.00;;;;;;;;;;5094187;28;20024;-71
2021/07/31 13:39:28;;;;;;;;;;;;;;;;;;5094325;28;20023;-71
2021/07/31 13:41:55;;;;;;;14.13;3.97;;;;;;;;;;5094013;28;19989;-71
2021/07/31 13:44:22;;;;;;;6.88;3.55;;;;;;;;;;5093966;28;20088;-72
2021/07/31 13:46:48;;;;;;;7.97;3.00;;;;;;;;;;5093488;28;20024;-71
2021/07/31 13:49:14;;;;;;;5.30;2.78;;;;;;;;;;5092482;28;20479;-71
2021/07/31 13:51:41;;;;;;;8.50;3.08;;;;;;;;;;5093765;28;20047;-71
2021/07/31 13:54:07;;;;;;;14.63;3.92;;;;;;;;;;5093428;28;20020;-72
2021/07/31 13:56:33;;;;;;;7.00;2.53;;;;;;;;;;5093738;28;20089;-70
2021/07/31 13:59:03;;;;;;;7.60;2.90;;;;;;;;;;5093315;28;20402;-71
2021/07/31 14:01:29;;;;;;;9.27;2.95;;;;;;;;;;5092426;28;20032;-71
2021/07/31 14:03:58;;;;;;;9.75;3.25;;;;;;;;;;5093666;28;20464;-71
2021/07/31 14:06:24;;;;;;;8.90;3.33;;;;;;;;;;5093158;28;20126;-69
2021/07/31 14:08:50;;;;;;;6.82;3.15;;;;;;;;;;5093661;28;20038;-70
2021/07/31 14:11:17;;;;;;;8.18;2.90;;;;;;;;;;5093850;28;20404;-71
2021/07/31 14:13:43;;;;;;;6.97;2.83;;;;;;;;;;5093137;28;20052;-71
2021/07/31 14:16:10;;;;;;;7.35;2.88;;;;;;;;;;5091992;28;20055;-71
2021/07/31 14:18:37;;;;;;;6.20;3.03;;;;;;;;;;5093704;28;20028;-71
2021/07/31 14:21:06;;;;;;;9.90;2.97;;;;;;;;;;5093200;28;20511;-71
2021/07/31 14:23:33;;;;;;;11.52;3.22;;;;;;;;;;5092255;28;20016;-71
2021/07/31 14:25:59;;;;;;;9.30;3.63;;;;;;;;;;5093616;28;20394;-71
2021/07/31 14:28:26;;;;;;;8.70;3.05;;;;;;;;;;5093014;28;20028;-71
2021/07/31 14:30:52;;;;;;;10.75;3.35;;;;;;;;;;5093453;28;20388;-70
2021/07/31 14:33:21;;;;;;;6.93;3.08;;;;;;;;;;5093418;28;20028;-70
2021/07/31 14:35:47;;;;;;;7.72;2.78;;;;;;;;;;5092967;28;20484;-70
2021/07/31 14:38:14;;;;;;;14.88;3.30;;;;;;;;;;5097169;28;20035;-70
2021/07/31 14:40:40;;;;;;;7.18;2.67;;;;;;;;;;5097431;28;20051;-70
2021/07/31 14:43:06;;;;;;;7.18;2.60;;;;;;;;;;5097208;28;20642;-71
2021/07/31 14:45:34;;;;;;;7.93;2.65;;;;;;;;;;5097614;28;20020;-71
2021/07/31 14:48:00;;;;;;;9.68;3.13;;;;;;;;;;5096868;28;20024;-71
2021/07/31 14:50:26;;;;;;;7.30;2.50;;;;;;;;;;5097321;28;20018;-71
2021/07/31 14:52:53;;;;;;;9.45;2.47;;;;;;;;;;5095981;28;20391;-71
2021/07/31 14:55:19;;;;;;;7.55;2.97;;;;;;;;;;5096699;28;20040;-71
2021/07/31 14:57:45;;;;;;;7.57;2.63;;;;;;;;;;5097391;28;20087;-71
2021/07/31 15:00:12;;;;;;;7.50;2.53;;;;;;;;;;5097126;28;20425;-71
2021/07/31 15:02:39;;;;;;;4.53;2.25;;;;;;;;;;5096840;28;20052;-71
2021/07/31 15:05:05;;;;;;;8.18;3.25;;;;;;;;;;5097149;28;20048;-71
2021/07/31 15:07:31;;;;;;;7.55;2.50;;;;;;;;;;5096967;28;20031;-71